Canton, MI (48187)

2:25 AM EDT on March 31, 2015 (GMT -0400)
Canton Center and Saltz | | Change Station
CLOSE
Current Station
Personal Weather Station
Location: Canton, MI
Elevation: 702 ft
Nearby Weather Stations

Elev 702 ft 42.32 °N, 83.49 °W | Updated 1 second ago

Rain
Rain
35.8 °F
Feels Like 32 °F
N
4.0
Wind Variable Wind from East
Gusts 9.0 mph

Today
High -- | Low -- °F
--% Chance of Precip.
Yesterday
High -- | Low -- °F
Precip. -- in
7:18 AM 7:58 PM
Waxing Gibbous, 85% visible
Pressure 29.89 in
Visibility 5.0 miles
Clouds Few 1600 ft
Mostly Cloudy 3000 ft
Overcast 4100 ft
Windchill 32 °F
Dew Point 33 °F
Humidity 88%
Rainfall 0.13 in
Snow Depth Not available.
UV 0 out of 12
Pollen 5.80 out of 12
Air Quality Not available.
Flu Activity Not available.
METAR KYIP 310553Z AUTO 12010KT 5SM -RA FEW016 BKN030 OVC041 04/00 A2989 RMK AO2 SLP120 P0010 60010 T00390000 10117 20039 58021 TSNO

More Conditions Fewer Conditions

Pressure 29.89 in
Visibility 5.0 miles
Clouds Few 1600 ft
Mostly Cloudy 3000 ft
Overcast 4100 ft
Windchill 32 °F
Dew Point 33 °F
Humidity 88%
Rainfall 0.13 in
Snow Depth Not available.
UV 0 out of 12
Pollen 5.80 out of 12
Air Quality Not available.
Flu Activity Not available.
METAR KYIP 310553Z AUTO 12010KT 5SM -RA FEW016 BKN030 OVC041 04/00 A2989 RMK AO2 SLP120 P0010 60010 T00390000 10117 20039 58021 TSNO

More Conditions Fewer Conditions

10-Day Weather Forecast

Almanac

Astronomy

Mar. 31, 2015 Rise Set
Actual Time
Civil Twilight
Nautical Twilight
Astronomical Twilight
Moon
Length of Visible Light
Length of Day
Tomorrow will be .
, % of the Moon is Illuminated

Today's Extremes

State Highs State Lows

Community

WunderPhotos

Upload Photos

1,809,725 photos uploaded!

WunderBlogs® & News

Nearby

Air Quality

  Air Quality AQ Index Pollutant
Not available.

Snow Depth

Station Depth Elevation

Earthquake Activity

City Distance Mag. Time & Date
Minimum magnitude displayed is 2.5.

Coastal Water Temperatures

Place Temperature

Stations

Nearby Weather Stations

Station Location Temp. Windchill Dew Point Humidity Wind Precip. Elev Updated Type